createdAt,value
2022-09-28T00:00:10.836Z,97.03
2022-09-28T00:03:14.257Z,96.87
2022-09-28T00:06:19.563Z,97.27
2022-09-28T00:09:21.651Z,96.14
2022-09-28T00:12:24.249Z,95.59
2022-09-28T00:15:26.622Z,97.36
2022-09-28T00:18:32.270Z,96.61
2022-09-28T00:21:36.959Z,96.20
2022-09-28T00:24:39.401Z,94.16
2022-09-28T00:27:43.188Z,91.98
2022-09-28T00:30:45.515Z,93.98
2022-09-28T00:33:51.988Z,94.81
2022-09-28T00:36:54.363Z,92.95
2022-09-28T00:39:56.484Z,94.01
2022-09-28T00:42:58.851Z,93.53
2022-09-28T00:46:15.312Z,93.57
2022-09-28T00:49:19.898Z,94.31
2022-09-28T00:52:48.687Z,94.89
2022-09-28T00:55:58.869Z,93.62
2022-09-28T00:59:01.835Z,94.99
2022-09-28T01:02:04.508Z,93.12
2022-09-28T01:05:10.133Z,95.54
2022-09-28T01:08:14.270Z,95.14
2022-09-28T01:11:17.577Z,94.97
2022-09-28T01:14:20.701Z,97.08
2022-09-28T01:17:48.238Z,92.60
2022-09-28T01:21:01.147Z,94.39
2022-09-28T01:24:16.510Z,90.82
2022-09-28T01:27:31.951Z,85.85
2022-09-28T01:30:50.937Z,90.49
2022-09-28T01:33:57.089Z,89.70
2022-09-28T01:37:04.481Z,91.36
2022-09-28T01:40:10.007Z,89.96
2022-09-28T01:43:19.897Z,90.22
2022-09-28T01:46:34.347Z,91.44
2022-09-28T01:49:43.602Z,91.54
2022-09-28T01:52:54.453Z,91.30
2022-09-28T01:56:01.775Z,87.63
2022-09-28T01:59:13.725Z,89.08
2022-09-28T02:02:22.590Z,88.59
2022-09-28T02:05:33.220Z,88.08
2022-09-28T02:08:40.876Z,85.02
2022-09-28T02:11:48.010Z,85.54
2022-09-28T02:14:56.595Z,85.40
2022-09-28T02:17:59.195Z,85.53
2022-09-28T02:21:28.198Z,86.63
2022-09-28T02:24:43.917Z,81.68
2022-09-28T02:27:59.281Z,79.77
2022-09-28T02:31:02.550Z,80.70
2022-09-28T02:34:05.430Z,78.07
2022-09-28T02:37:07.962Z,81.22
2022-09-28T02:40:20.345Z,81.55
2022-09-28T02:43:31.723Z,79.93
2022-09-28T02:47:21.858Z,81.98
2022-09-28T02:50:31.377Z,80.33
2022-09-28T02:53:52.875Z,81.24
2022-09-28T02:57:07.569Z,82.06
2022-09-28T03:00:19.887Z,83.46
2022-09-28T03:03:39.629Z,82.00
2022-09-28T03:06:53.223Z,82.73
2022-09-28T03:10:03.275Z,78.19
2022-09-28T03:13:06.165Z,75.39
2022-09-28T03:16:14.478Z,76.71
2022-09-28T03:19:21.366Z,73.53
2022-09-28T03:22:23.868Z,74.96
2022-09-28T03:25:26.186Z,75.47
2022-09-28T03:28:29.626Z,75.96
2022-09-28T03:31:32.800Z,75.64
2022-09-28T03:34:35.657Z,74.39
2022-09-28T03:37:38.152Z,71.46
2022-09-28T03:40:40.839Z,71.93
2022-09-28T03:43:43.306Z,74.93
2022-09-28T03:46:47.567Z,73.78
2022-09-28T03:49:49.671Z,78.20
2022-09-28T03:52:52.024Z,77.07
2022-09-28T03:55:54.281Z,80.52
2022-09-28T03:58:56.623Z,82.81
2022-09-28T04:01:58.809Z,82.61
2022-09-28T04:05:01.239Z,81.81
2022-09-28T04:08:04.057Z,82.58
2022-09-28T04:11:06.714Z,81.99
2022-09-28T04:14:09.041Z,85.47
2022-09-28T04:17:11.458Z,86.66
2022-09-28T04:20:14.485Z,86.17
2022-09-28T04:23:20.303Z,88.34
2022-09-28T04:26:24.858Z,83.63
2022-09-28T04:29:28.024Z,86.73
2022-09-28T04:32:30.280Z,87.93
2022-09-28T04:35:32.699Z,87.63
2022-09-28T04:38:52.397Z,87.29
2022-09-28T04:41:59.816Z,87.74
2022-09-28T04:45:04.706Z,86.66
2022-09-28T04:48:08.107Z,87.57
2022-09-28T04:51:12.675Z,88.02
2022-09-28T04:54:15.127Z,85.92
2022-09-28T04:57:17.414Z,88.76
2022-09-28T05:00:20.088Z,88.42
2022-09-28T05:03:25.779Z,89.81
2022-09-28T05:06:31.044Z,89.15
2022-09-28T05:09:38.400Z,90.24
2022-09-28T05:12:42.175Z,91.02
2022-09-28T05:15:48.896Z,90.89
2022-09-28T05:18:58.022Z,92.30
2022-09-28T05:22:06.403Z,90.24
2022-09-28T05:25:11.151Z,90.71
2022-09-28T05:28:24.750Z,93.69
2022-09-28T05:31:28.092Z,91.66
2022-09-28T05:34:31.556Z,89.12
2022-09-28T05:37:34.427Z,86.91
2022-09-28T05:40:36.653Z,87.94
2022-09-28T05:43:39.595Z,85.55
2022-09-28T05:46:41.787Z,84.89
2022-09-28T05:49:44.665Z,81.30
2022-09-28T05:52:47.052Z,81.35
2022-09-28T05:55:49.836Z,81.08
2022-09-28T05:58:51.982Z,81.06
2022-09-28T06:01:54.831Z,81.54
2022-09-28T06:04:57.311Z,81.02
2022-09-28T06:07:59.553Z,78.92
2022-09-28T06:11:02.199Z,78.67
2022-09-28T06:14:05.062Z,78.69
2022-09-28T06:17:07.964Z,76.60
2022-09-28T06:20:11.826Z,74.22
2022-09-28T06:23:21.187Z,76.03
2022-09-28T06:26:23.347Z,76.89
2022-09-28T06:29:25.735Z,77.16
2022-09-28T06:32:29.332Z,72.73
2022-09-28T06:35:33.330Z,69.62
2022-09-28T06:38:35.844Z,65.58
2022-09-28T06:41:39.913Z,60.34
2022-09-28T06:44:47.041Z,55.21
2022-09-28T06:48:00.313Z,49.81
2022-09-28T06:51:03.446Z,46.37
2022-09-28T06:54:06.194Z,45.03
2022-09-28T06:57:09.277Z,43.70
2022-09-28T07:00:12.455Z,43.27
2022-09-28T07:03:19.927Z,44.57
2022-09-28T07:06:24.191Z,40.92
2022-09-28T07:09:32.982Z,44.40
2022-09-28T07:12:39.887Z,44.37
2022-09-28T07:15:43.293Z,47.39
2022-09-28T07:18:47.873Z,49.66
2022-09-28T07:22:03.084Z,48.87
2022-09-28T07:25:09.295Z,48.48
2022-09-28T07:28:12.721Z,50.86
2022-09-28T07:31:15.721Z,52.00
2022-09-28T07:34:18.592Z,53.51
2022-09-28T07:37:24.247Z,53.65
2022-09-28T07:40:48.402Z,55.42
2022-09-28T07:43:51.448Z,55.10
2022-09-28T07:46:54.739Z,55.59
2022-09-28T07:49:59.576Z,57.11
2022-09-28T07:53:03.942Z,58.01
2022-09-28T07:56:09.567Z,58.08
2022-09-28T07:59:12.725Z,59.50
2022-09-28T08:02:20.574Z,56.16
2022-09-28T08:05:23.111Z,56.46
2022-09-28T08:08:25.214Z,56.65
2022-09-28T08:11:27.997Z,56.90
2022-09-28T08:14:34.427Z,57.11
2022-09-28T08:17:37.714Z,57.09
2022-09-28T08:20:58.816Z,56.88
2022-09-28T08:24:01.580Z,59.42
2022-09-28T08:27:03.844Z,60.71
2022-09-28T08:30:09.844Z,59.08
2022-09-28T08:33:17.905Z,58.93
2022-09-28T08:36:29.626Z,57.91
2022-09-28T08:39:34.729Z,59.70
2022-09-28T08:42:44.459Z,58.41
2022-09-28T08:45:47.813Z,60.18
2022-09-28T08:49:23.921Z,59.90
2022-09-28T08:52:30.048Z,57.61
2022-09-28T08:55:37.241Z,58.44
2022-09-28T08:58:46.456Z,58.90
2022-09-28T09:01:54.347Z,58.79
2022-09-28T09:04:58.034Z,58.88
2022-09-28T09:08:12.989Z,59.18
2022-09-28T09:11:27.340Z,58.82
2022-09-28T09:14:48.019Z,58.22
2022-09-28T09:18:30.313Z,57.71
2022-09-28T09:21:46.223Z,57.78
2022-09-28T09:24:50.798Z,58.92
2022-09-28T09:28:09.659Z,56.86
2022-09-28T09:31:26.494Z,57.90
2022-09-28T09:34:51.780Z,57.14
2022-09-28T09:38:33.995Z,57.57
2022-09-28T09:41:58.137Z,59.35
2022-09-28T09:45:23.520Z,57.69
2022-09-28T09:48:33.897Z,57.88
2022-09-28T09:51:46.985Z,56.37
2022-09-28T09:55:02.183Z,56.35
2022-09-28T09:58:11.784Z,56.94
2022-09-28T10:01:19.419Z,57.70
2022-09-28T10:04:39.407Z,55.25
2022-09-28T10:08:01.298Z,55.33
2022-09-28T10:11:19.503Z,56.66
2022-09-28T10:14:24.220Z,57.38
2022-09-28T10:17:30.031Z,57.30
2022-09-28T10:20:39.618Z,58.01
2022-09-28T10:23:44.610Z,58.72
2022-09-28T10:26:51.811Z,57.58
2022-09-28T10:29:59.994Z,55.47
2022-09-28T10:33:02.498Z,56.05
2022-09-28T10:36:08.115Z,55.80
2022-09-28T10:39:33.642Z,53.50
2022-09-28T10:42:36.462Z,54.85
2022-09-28T10:45:39.261Z,55.10
2022-09-28T10:49:02.487Z,57.40
2022-09-28T10:52:28.963Z,58.55
2022-09-28T10:55:33.424Z,56.78
2022-09-28T10:58:41.842Z,55.14
2022-09-28T11:01:45.673Z,56.84
2022-09-28T11:04:53.063Z,57.67
2022-09-28T11:07:59.771Z,57.72
2022-09-28T11:11:03.928Z,57.55
2022-09-28T11:14:39.591Z,58.07
2022-09-28T11:17:44.553Z,58.09
2022-09-28T11:20:48.764Z,55.59
2022-09-28T11:24:19.910Z,57.76
2022-09-28T11:27:25.788Z,56.03
2022-09-28T11:30:44.584Z,52.89
2022-09-28T11:33:48.333Z,52.70
2022-09-28T11:37:15.633Z,53.06
2022-09-28T11:40:38.893Z,53.97
2022-09-28T11:43:41.726Z,54.58
2022-09-28T11:47:08.627Z,54.54
2022-09-28T11:50:24.470Z,55.48
2022-09-28T11:53:35.063Z,54.86
2022-09-28T11:56:42.129Z,55.53
2022-09-28T11:59:51.961Z,55.23
2022-09-28T12:03:07.243Z,56.86
2022-09-28T12:06:16.291Z,54.22
2022-09-28T12:09:48.385Z,55.98
2022-09-28T12:12:58.265Z,55.04
2022-09-28T12:19:49.868Z,58.21
2022-09-28T12:23:08.234Z,57.18
2022-09-28T12:26:35.931Z,54.99
2022-09-28T12:29:47.414Z,55.37
2022-09-28T12:32:56.046Z,54.91
2022-09-28T12:36:14.725Z,55.59
2022-09-28T12:39:56.543Z,55.99
2022-09-28T12:43:28.854Z,57.14
2022-09-28T12:46:37.110Z,57.43
2022-09-28T12:53:41.549Z,55.16
2022-09-28T12:57:13.081Z,56.42
2022-09-28T13:00:32.176Z,56.26
2022-09-28T13:03:49.600Z,58.85
2022-09-28T13:07:06.396Z,58.32
2022-09-28T13:10:34.883Z,59.53
2022-09-28T13:13:49.307Z,58.11
2022-09-28T13:17:15.564Z,55.37
2022-09-28T13:20:32.111Z,54.72
2022-09-28T13:23:46.587Z,54.22
2022-09-28T13:26:49.710Z,54.85
2022-09-28T13:29:52.330Z,55.27
2022-09-28T13:33:00.995Z,55.31
2022-09-28T13:36:24.433Z,54.49
2022-09-28T13:39:46.456Z,53.11
2022-09-28T13:42:56.919Z,53.35
2022-09-28T13:46:07.618Z,53.42
2022-09-28T13:49:21.766Z,52.56
2022-09-28T13:52:43.444Z,52.93
2022-09-28T13:56:04.412Z,52.65
2022-09-28T13:59:23.161Z,52.05
2022-09-28T14:02:33.797Z,52.00
2022-09-28T14:05:55.044Z,52.14
2022-09-28T14:09:35.987Z,52.84
2022-09-28T14:12:38.296Z,53.02
2022-09-28T14:15:43.919Z,51.90
2022-09-28T14:19:10.053Z,53.00
2022-09-28T14:22:24.117Z,52.08
2022-09-28T14:25:42.982Z,51.60
2022-09-28T14:29:09.962Z,52.42
2022-09-28T14:32:12.547Z,52.67
2022-09-28T14:35:26.062Z,52.58
2022-09-28T14:38:54.411Z,53.95
2022-09-28T14:41:56.542Z,53.29
2022-09-28T14:45:06.113Z,52.39
2022-09-28T14:48:20.384Z,53.11
2022-09-28T14:51:26.395Z,55.05
2022-09-28T14:54:38.405Z,55.03
2022-09-28T14:57:42.084Z,56.88
2022-09-28T15:00:46.549Z,57.93
2022-09-28T15:03:54.098Z,58.15
2022-09-28T15:06:57.509Z,55.88
2022-09-28T15:10:04.221Z,57.22
2022-09-28T15:13:16.145Z,58.17
2022-09-28T15:16:24.059Z,56.75
2022-09-28T15:19:53.021Z,58.05
2022-09-28T15:22:58.334Z,57.91
2022-09-28T15:26:01.363Z,58.63
2022-09-28T15:29:18.010Z,57.76
2022-09-28T15:32:27.614Z,58.23
2022-09-28T15:35:30.051Z,57.98
2022-09-28T15:38:33.994Z,59.13
2022-09-28T15:41:36.559Z,59.79
2022-09-28T15:44:41.586Z,59.38
2022-09-28T15:47:44.835Z,59.71
2022-09-28T15:51:01.331Z,60.00
2022-09-28T15:54:21.532Z,62.24
2022-09-28T15:57:37.000Z,60.66
2022-09-28T16:00:40.215Z,60.64
2022-09-28T16:03:42.683Z,60.50
2022-09-28T16:06:45.255Z,61.54
2022-09-28T16:10:25.452Z,61.82
2022-09-28T16:13:27.809Z,60.53
2022-09-28T16:16:37.044Z,61.67
2022-09-28T16:19:39.586Z,61.27
2022-09-28T16:22:43.309Z,62.76
2022-09-28T16:26:04.331Z,61.42
2022-09-28T16:29:25.504Z,62.44
2022-09-28T16:32:33.986Z,62.52
2022-09-28T16:35:42.494Z,62.81
2022-09-28T16:38:45.480Z,62.94
2022-09-28T16:41:58.192Z,63.49
2022-09-28T16:45:04.203Z,64.67
2022-09-28T16:48:06.655Z,64.31
2022-09-28T16:51:08.710Z,64.33
2022-09-28T16:54:41.202Z,63.75
2022-09-28T16:57:45.416Z,64.85
2022-09-28T17:00:47.847Z,65.80
2022-09-28T17:03:50.191Z,67.54
2022-09-28T17:06:54.331Z,68.66
2022-09-28T17:09:56.404Z,69.45
2022-09-28T17:12:59.516Z,67.93
2022-09-28T17:16:04.395Z,66.09
2022-09-28T17:19:26.827Z,66.39
2022-09-28T17:22:29.505Z,69.54
2022-09-28T17:25:32.216Z,74.12
2022-09-28T17:28:37.173Z,73.54
2022-09-28T17:31:39.777Z,70.15
2022-09-28T17:34:48.334Z,69.02
2022-09-28T17:37:58.133Z,69.75
2022-09-28T17:41:00.275Z,71.29
2022-09-28T17:44:03.216Z,71.97
2022-09-28T17:47:05.326Z,75.75
2022-09-28T17:50:29.658Z,76.56
2022-09-28T17:53:31.716Z,79.50
2022-09-28T17:56:35.301Z,84.06
2022-09-28T17:59:37.375Z,88.17
2022-09-28T18:02:40.723Z,91.69
2022-09-28T18:05:43.940Z,92.75
2022-09-28T18:08:46.743Z,100.00
2022-09-28T18:11:52.773Z,100.00
2022-09-28T18:14:54.969Z,97.66
2022-09-28T18:17:57.414Z,100.00
2022-09-28T18:21:02.315Z,100.00
2022-09-28T18:24:04.886Z,100.00
2022-09-28T18:27:07.021Z,100.00
2022-09-28T18:30:09.855Z,100.00
2022-09-28T18:33:13.955Z,100.00
2022-09-28T18:36:16.358Z,100.00
2022-09-28T18:39:18.612Z,100.00
2022-09-28T18:42:21.114Z,100.00
2022-09-28T18:45:23.227Z,100.00
2022-09-28T18:48:27.926Z,100.00
2022-09-28T18:51:30.279Z,100.00
2022-09-28T18:54:33.283Z,100.00
2022-09-28T18:57:36.335Z,100.00
2022-09-28T19:00:40.459Z,100.00
2022-09-28T19:03:42.763Z,100.00
2022-09-28T19:06:47.482Z,100.00
2022-09-28T19:09:50.408Z,100.00
2022-09-28T19:12:52.831Z,100.00
2022-09-28T19:15:55.330Z,100.00
2022-09-28T19:18:59.091Z,100.00
2022-09-28T19:22:01.687Z,100.00
2022-09-28T19:25:04.524Z,100.00
2022-09-28T19:28:06.663Z,100.00
2022-09-28T19:31:10.845Z,100.00
2022-09-28T19:34:14.231Z,100.00
2022-09-28T19:37:16.938Z,100.00
2022-09-28T19:40:19.515Z,100.00
2022-09-28T19:43:22.131Z,100.00
2022-09-28T19:46:24.244Z,100.00
2022-09-28T19:49:27.892Z,100.00
2022-09-28T19:52:29.976Z,100.00
2022-09-28T19:55:36.231Z,100.00
2022-09-28T19:58:39.039Z,100.00
2022-09-28T20:01:42.291Z,100.00
2022-09-28T20:04:44.779Z,100.00
2022-09-28T20:07:46.864Z,100.00
2022-09-28T20:10:52.299Z,100.00
2022-09-28T20:13:55.273Z,100.00
2022-09-28T20:16:57.853Z,100.00
2022-09-28T20:19:59.988Z,100.00
2022-09-28T20:23:03.041Z,100.00
2022-09-28T20:26:07.034Z,100.00
2022-09-28T20:29:09.660Z,100.00
2022-09-28T20:32:12.164Z,100.00
2022-09-28T20:35:22.320Z,100.00
2022-09-28T20:38:32.378Z,100.00
2022-09-28T20:41:36.573Z,100.00
2022-09-28T20:44:41.638Z,100.00
2022-09-28T20:47:44.081Z,100.00
2022-09-28T20:50:46.174Z,100.00
2022-09-28T20:53:54.437Z,100.00
2022-09-28T20:56:56.550Z,100.00
2022-09-28T20:59:58.904Z,100.00
2022-09-28T21:03:01.102Z,100.00
2022-09-28T21:06:08.727Z,100.00
2022-09-28T21:09:13.610Z,100.00
2022-09-28T21:12:16.405Z,100.00
2022-09-28T21:15:18.520Z,100.00
2022-09-28T21:18:22.346Z,100.00
2022-09-28T21:21:25.657Z,100.00
2022-09-28T21:24:28.020Z,100.00
2022-09-28T21:27:30.940Z,100.00
2022-09-28T21:30:33.604Z,100.00
2022-09-28T21:33:35.780Z,100.00
2022-09-28T21:36:38.521Z,100.00
2022-09-28T21:39:40.658Z,100.00
2022-09-28T21:42:43.101Z,100.00
2022-09-28T21:45:49.641Z,100.00
2022-09-28T21:48:55.028Z,100.00
2022-09-28T21:51:57.171Z,100.00
2022-09-28T21:54:59.583Z,100.00
2022-09-28T21:58:01.680Z,100.00
2022-09-28T22:01:07.082Z,100.00
2022-09-28T22:04:10.214Z,100.00
2022-09-28T22:07:12.338Z,100.00
2022-09-28T22:10:15.315Z,100.00
2022-09-28T22:13:17.387Z,100.00
2022-09-28T22:16:23.063Z,100.00
2022-09-28T22:19:25.203Z,100.00
2022-09-28T22:22:29.256Z,100.00
2022-09-28T22:25:31.486Z,100.00
2022-09-28T22:28:34.873Z,100.00
2022-09-28T22:31:40.090Z,100.00
2022-09-28T22:34:42.571Z,100.00
2022-09-28T22:37:44.683Z,100.00
2022-09-28T22:40:51.811Z,100.00
2022-09-28T22:43:54.996Z,100.00
2022-09-28T22:46:57.435Z,100.00
2022-09-28T22:49:59.923Z,100.00
2022-09-28T22:53:02.314Z,100.00
2022-09-28T22:56:05.846Z,100.00
2022-09-28T22:59:08.250Z,100.00
2022-09-28T23:02:10.371Z,100.00
2022-09-28T23:05:13.507Z,100.00
2022-09-28T23:08:15.569Z,100.00
2022-09-28T23:11:18.812Z,100.00
2022-09-28T23:14:22.593Z,100.00
2022-09-28T23:17:25.031Z,100.00
2022-09-28T23:20:27.139Z,100.00
2022-09-28T23:23:29.787Z,100.00
2022-09-28T23:26:34.147Z,100.00
2022-09-28T23:29:36.500Z,100.00
2022-09-28T23:32:38.605Z,100.00
2022-09-28T23:35:41.838Z,100.00
2022-09-28T23:38:44.144Z,100.00
2022-09-28T23:41:46.528Z,100.00
2022-09-28T23:44:48.601Z,100.00
2022-09-28T23:47:51.511Z,100.00
2022-09-28T23:50:53.664Z,100.00
2022-09-28T23:53:56.100Z,100.00
2022-09-28T23:56:58.223Z,100.00
